createdAt,value
2022-10-19T00:02:24.933Z,102450.34
2022-10-19T00:04:50.505Z,102458.38
2022-10-19T00:07:16.054Z,102446.72
2022-10-19T00:09:43.192Z,102457.56
2022-10-19T00:12:08.731Z,102442.88
2022-10-19T00:14:34.280Z,102446.47
2022-10-19T00:16:59.816Z,102434.56
2022-10-19T00:19:25.686Z,102436.50
2022-10-19T00:24:21.805Z,102438.41
2022-10-19T00:26:47.344Z,102439.50
2022-10-19T00:29:13.073Z,102438.41
2022-10-19T00:31:38.673Z,102437.56
2022-10-19T00:34:04.259Z,102436.50
2022-10-19T00:36:31.272Z,102437.56
2022-10-19T00:38:57.000Z,102440.34
2022-10-19T00:41:23.169Z,102441.16
2022-10-19T00:43:50.279Z,102440.34
2022-10-19T00:46:15.815Z,102439.50
2022-10-19T00:48:41.384Z,102447.56
2022-10-19T00:51:06.950Z,102440.34
2022-10-19T00:53:32.508Z,102441.16
2022-10-19T00:55:58.857Z,102437.56
2022-10-19T00:58:24.410Z,102441.44
2022-10-19T01:00:50.033Z,102437.00
2022-10-19T01:03:15.644Z,102433.13
2022-10-19T01:05:41.184Z,102437.00
2022-10-19T01:08:06.738Z,102423.97
2022-10-19T01:10:36.798Z,102431.19
2022-10-19T01:13:06.085Z,102428.41
2022-10-19T01:18:20.896Z,102428.69
2022-10-19T01:20:52.428Z,102432.28
2022-10-19T01:23:37.898Z,102430.34
2022-10-19T01:26:23.315Z,102428.69
2022-10-19T01:28:55.150Z,102426.75
2022-10-19T01:31:25.722Z,102427.59
2022-10-19T01:34:01.679Z,102432.28
2022-10-19T01:36:32.153Z,102424.81
2022-10-19T01:39:16.904Z,102423.97
2022-10-19T01:42:02.379Z,102417.59
2022-10-19T01:44:30.960Z,102417.59
2022-10-19T01:46:57.531Z,102416.78
2022-10-19T01:49:24.615Z,102417.88
2022-10-19T01:51:52.168Z,102409.28
2022-10-19T01:54:17.771Z,102402.09
2022-10-19T01:56:43.338Z,102400.16
2022-10-19T01:59:08.908Z,102396.56
2022-10-19T02:01:34.781Z,102393.78
2022-10-19T02:04:00.355Z,102396.56
2022-10-19T02:06:25.896Z,102395.44
2022-10-19T02:08:52.084Z,102398.50
2022-10-19T02:11:18.033Z,102402.91
2022-10-19T02:13:43.896Z,102402.91
2022-10-19T02:16:12.173Z,102399.31
2022-10-19T02:18:38.837Z,102396.56
2022-10-19T02:21:04.520Z,102401.25
2022-10-19T02:23:30.078Z,102395.72
2022-10-19T02:25:55.628Z,102392.09
2022-10-19T02:28:21.284Z,102388.25
2022-10-19T02:30:46.845Z,102389.31
2022-10-19T02:33:12.479Z,102382.09
2022-10-19T02:35:38.031Z,102381.00
2022-10-19T02:38:03.583Z,102379.09
2022-10-19T02:40:31.123Z,102375.47
2022-10-19T02:42:58.587Z,102378.22
2022-10-19T02:45:25.608Z,102377.41
2022-10-19T02:47:54.178Z,102368.25
2022-10-19T02:50:19.751Z,102365.47
2022-10-19T02:52:45.297Z,102374.63
2022-10-19T02:55:10.838Z,102367.16
2022-10-19T02:57:36.943Z,102360.78
2022-10-19T03:00:03.896Z,102355.22
2022-10-19T03:02:29.439Z,102355.22
2022-10-19T03:04:54.977Z,102351.63
2022-10-19T03:07:20.627Z,102345.25
2022-10-19T03:09:46.252Z,102349.69
2022-10-19T03:12:12.228Z,102342.50
2022-10-19T03:14:37.772Z,102351.63
2022-10-19T03:17:03.308Z,102355.22
2022-10-19T03:19:28.851Z,102357.16
2022-10-19T03:21:54.387Z,102349.69
2022-10-19T03:24:19.930Z,102352.47
2022-10-19T03:26:45.472Z,102354.41
2022-10-19T03:29:11.031Z,102354.41
2022-10-19T03:31:36.586Z,102355.22
2022-10-19T03:34:02.154Z,102356.34
2022-10-19T03:36:28.841Z,102356.34
2022-10-19T03:38:55.135Z,102357.16
2022-10-19T03:41:21.065Z,102358.28
2022-10-19T03:43:46.857Z,102372.13
2022-10-19T03:46:12.439Z,102372.97
2022-10-19T03:48:37.992Z,102374.91
2022-10-19T03:51:04.983Z,102375.72
2022-10-19T03:53:32.548Z,102372.97
2022-10-19T03:56:06.853Z,102379.34
2022-10-19T03:58:32.856Z,102374.91
2022-10-19T04:00:58.477Z,102370.19
2022-10-19T04:03:24.336Z,102374.91
2022-10-19T04:05:49.936Z,102374.91
2022-10-19T04:08:15.608Z,102374.91
2022-10-19T04:10:41.152Z,102376.84
2022-10-19T04:13:06.705Z,102374.91
2022-10-19T04:15:32.243Z,102374.91
2022-10-19T04:17:57.800Z,102365.75
2022-10-19T04:20:23.349Z,102365.75
2022-10-19T04:22:48.899Z,102374.06
2022-10-19T04:25:14.477Z,102376.00
2022-10-19T04:27:40.027Z,102376.84
2022-10-19T04:30:05.804Z,102376.00
2022-10-19T04:32:31.352Z,102369.63
2022-10-19T04:34:56.900Z,102372.41
2022-10-19T04:37:22.440Z,102374.06
2022-10-19T04:39:47.995Z,102371.28
2022-10-19T04:42:13.535Z,102371.28
2022-10-19T04:44:39.079Z,102373.22
2022-10-19T04:47:04.619Z,102368.75
2022-10-19T04:49:30.173Z,102366.84
2022-10-19T04:51:55.716Z,102356.84
2022-10-19T04:54:21.275Z,102366.84
2022-10-19T04:56:46.812Z,102355.78
2022-10-19T04:59:12.360Z,102349.38
2022-10-19T05:01:37.904Z,102354.91
2022-10-19T05:04:03.501Z,102349.38
2022-10-19T05:06:29.437Z,102353.00
2022-10-19T05:08:55.132Z,102354.06
2022-10-19T05:11:20.682Z,102360.44
2022-10-19T05:13:46.356Z,102357.69
2022-10-19T05:16:12.992Z,102352.13
2022-10-19T05:18:38.542Z,102354.91
2022-10-19T05:21:06.344Z,102351.31
2022-10-19T05:26:03.343Z,102345.78
2022-10-19T05:28:28.957Z,102347.16
2022-10-19T05:30:54.841Z,102358.22
2022-10-19T05:33:20.384Z,102346.31
2022-10-19T05:35:45.926Z,102349.06
2022-10-19T05:38:11.477Z,102346.03
2022-10-19T05:40:37.018Z,102337.72
2022-10-19T05:43:02.571Z,102339.41
2022-10-19T05:45:28.113Z,102331.34
2022-10-19T05:47:53.659Z,102339.41
2022-10-19T05:50:19.195Z,102341.59
2022-10-19T05:52:44.744Z,102336.06
2022-10-19T05:55:10.283Z,102332.47
2022-10-19T05:57:36.107Z,102338.56
2022-10-19T06:00:03.378Z,102344.09
2022-10-19T06:02:28.928Z,102339.94
2022-10-19T06:04:54.468Z,102337.16
2022-10-19T06:07:20.010Z,102330.25
2022-10-19T06:09:45.573Z,102326.66
2022-10-19T06:12:11.110Z,102333.28
2022-10-19T06:14:36.746Z,102325.81
2022-10-19T06:17:02.333Z,102323.88
2022-10-19T06:19:27.886Z,102329.41
2022-10-19T06:21:53.439Z,102334.97
2022-10-19T06:24:18.991Z,102337.84
2022-10-19T06:26:44.534Z,102337.16
2022-10-19T06:29:10.085Z,102346.03
2022-10-19T06:31:35.748Z,102354.91
2022-10-19T06:34:01.395Z,102358.78
2022-10-19T06:36:27.886Z,102350.75
2022-10-19T06:38:53.436Z,102347.47
2022-10-19T06:41:19.242Z,102342.75
2022-10-19T06:43:48.227Z,102344.69
2022-10-19T06:46:16.573Z,102348.28
2022-10-19T06:48:42.198Z,102346.38
2022-10-19T06:51:07.737Z,102341.66
2022-10-19T06:53:34.030Z,102338.88
2022-10-19T06:56:01.265Z,102338.06
2022-10-19T06:58:27.018Z,102336.94
2022-10-19T07:00:54.369Z,102325.88
2022-10-19T07:03:19.930Z,102323.94
2022-10-19T07:05:51.535Z,102328.38
2022-10-19T07:08:17.103Z,102324.75
2022-10-19T07:10:42.661Z,102329.22
2022-10-19T07:15:38.715Z,102347.50
2022-10-19T07:18:04.270Z,102350.53
2022-10-19T07:20:29.811Z,102357.31
2022-10-19T07:22:55.363Z,102355.59
2022-10-19T07:25:20.912Z,102353.25
2022-10-19T07:27:46.484Z,102343.31
2022-10-19T07:30:12.039Z,102354.41
2022-10-19T07:32:37.587Z,102360.53
2022-10-19T07:35:03.281Z,102367.75
2022-10-19T07:37:28.833Z,102364.13
2022-10-19T07:39:54.384Z,102356.66
2022-10-19T07:42:19.928Z,102356.38
2022-10-19T07:44:45.518Z,102347.66
2022-10-19T07:47:11.065Z,102351.53
2022-10-19T07:49:36.626Z,102345.84
2022-10-19T07:52:02.164Z,102349.75
2022-10-19T07:54:27.743Z,102354.22
2022-10-19T07:56:53.289Z,102358.66
2022-10-19T07:59:18.824Z,102364.19
2022-10-19T08:01:44.465Z,102360.00
2022-10-19T08:06:55.551Z,102355.28
2022-10-19T08:09:47.753Z,102354.44
2022-10-19T08:12:06.722Z,102343.81
2022-10-19T08:14:32.282Z,102333.38
2022-10-19T08:16:57.860Z,102339.25
2022-10-19T08:19:23.542Z,102340.34
2022-10-19T08:21:49.094Z,102332.06
2022-10-19T08:24:15.451Z,102331.22
2022-10-19T08:26:41.166Z,102339.53
2022-10-19T08:29:07.779Z,102333.06
2022-10-19T08:31:33.325Z,102339.75
2022-10-19T08:33:58.866Z,102343.97
2022-10-19T08:36:25.200Z,102333.72
2022-10-19T08:38:50.949Z,102334.53
2022-10-19T08:41:36.447Z,102330.94
2022-10-19T08:44:09.182Z,102318.44
2022-10-19T08:46:55.684Z,102311.56
2022-10-19T08:49:22.150Z,102313.50
2022-10-19T08:51:50.263Z,102321.78
2022-10-19T08:54:16.230Z,102318.06
2022-10-19T08:56:52.123Z,102302.34
2022-10-19T08:59:30.149Z,102307.31
2022-10-19T09:01:58.399Z,102299.88
2022-10-19T09:04:43.842Z,102302.13
2022-10-19T09:07:26.530Z,102283.25
2022-10-19T09:10:01.088Z,102284.91
2022-10-19T09:12:46.556Z,102286.28
2022-10-19T09:15:12.623Z,102277.47
2022-10-19T09:17:38.183Z,102274.69
2022-10-19T09:20:20.360Z,102272.75
2022-10-19T09:22:46.190Z,102271.66
2022-10-19T09:25:12.975Z,102271.66
2022-10-19T09:27:39.130Z,102274.44
2022-10-19T09:30:05.659Z,102279.72
2022-10-19T09:32:32.216Z,102280.81
2022-10-19T09:35:01.413Z,102279.19
2022-10-19T09:37:27.631Z,102278.06
2022-10-19T09:39:55.348Z,102271.97
2022-10-19T09:42:29.545Z,102273.31
2022-10-19T09:44:55.421Z,102271.66
2022-10-19T09:47:31.634Z,102275.00
2022-10-19T09:50:17.373Z,102269.41
2022-10-19T09:52:43.470Z,102264.44
2022-10-19T09:57:56.808Z,102262.16
2022-10-19T10:00:23.543Z,102258.91
2022-10-19T10:02:49.747Z,102265.28
2022-10-19T10:05:15.481Z,102264.19
2022-10-19T10:07:41.025Z,102257.28
2022-10-19T10:10:08.418Z,102258.94
2022-10-19T10:12:34.943Z,102256.47
2022-10-19T10:15:01.759Z,102255.81
2022-10-19T10:17:27.659Z,102248.16
2022-10-19T10:20:04.208Z,102254.25
2022-10-19T10:22:32.757Z,102263.38
2022-10-19T10:24:58.541Z,102261.06
2022-10-19T10:27:27.150Z,102258.38
2022-10-19T10:29:54.263Z,102251.34
2022-10-19T10:32:19.816Z,102241.97
2022-10-19T10:34:51.910Z,102242.28
2022-10-19T10:37:20.478Z,102234.59
2022-10-19T10:39:46.026Z,102231.63
2022-10-19T10:42:14.417Z,102231.66
2022-10-19T10:44:43.169Z,102232.25
2022-10-19T10:47:13.048Z,102223.34
2022-10-19T10:49:40.743Z,102227.22
2022-10-19T10:52:09.306Z,102223.31
2022-10-19T10:54:34.895Z,102223.25
2022-10-19T10:57:12.254Z,102221.31
2022-10-19T10:59:43.108Z,102212.50
2022-10-19T11:02:14.046Z,102201.66
2022-10-19T11:04:41.623Z,102194.78
2022-10-19T11:07:12.006Z,102193.94
2022-10-19T11:09:37.814Z,102191.16
2022-10-19T11:12:03.876Z,102181.75
2022-10-19T11:14:38.421Z,102172.03
2022-10-19T11:17:04.907Z,102170.66
2022-10-19T11:19:33.626Z,102166.78
2022-10-19T11:22:03.752Z,102162.06
2022-10-19T11:24:49.192Z,102157.94
2022-10-19T11:27:21.358Z,102161.81
2022-10-19T11:30:06.786Z,102159.88
2022-10-19T11:32:37.233Z,102160.72
2022-10-19T11:35:11.400Z,102157.94
2022-10-19T11:38:18.209Z,102155.19
2022-10-19T11:40:54.251Z,102150.59
2022-10-19T11:43:37.555Z,102143.78
2022-10-19T11:46:22.970Z,102143.25
2022-10-19T11:48:54.875Z,102141.81
2022-10-19T11:51:40.504Z,102132.72
2022-10-19T11:54:14.617Z,102134.41
2022-10-19T11:57:02.927Z,102126.09
2022-10-19T11:59:49.738Z,102117.78
2022-10-19T12:02:35.536Z,102113.91
2022-10-19T12:05:02.915Z,102111.16
2022-10-19T12:07:39.107Z,102116.97
2022-10-19T12:10:24.578Z,102096.31
2022-10-19T12:12:51.258Z,102098.09
2022-10-19T12:15:22.917Z,102089.00
2022-10-19T12:17:49.202Z,102092.81
2022-10-19T12:20:19.681Z,102085.59
2022-10-19T12:22:45.573Z,102081.28
2022-10-19T12:25:12.139Z,102080.78
2022-10-19T12:27:37.977Z,102072.53
2022-10-19T12:30:07.074Z,102071.75
2022-10-19T12:32:35.535Z,102070.38
2022-10-19T12:35:06.886Z,102056.53
2022-10-19T12:37:34.417Z,102057.06
2022-10-19T12:40:04.579Z,102053.75
2022-10-19T12:42:33.446Z,102047.94
2022-10-19T12:45:04.782Z,102043.81
2022-10-19T12:47:30.332Z,102035.47
2022-10-19T12:49:56.033Z,102033.53
2022-10-19T12:52:41.527Z,102033.81
2022-10-19T12:55:16.948Z,102032.72
2022-10-19T12:57:47.294Z,102022.75
2022-10-19T13:00:21.143Z,102022.16
2022-10-19T13:02:47.297Z,102020.81
2022-10-19T13:05:20.490Z,102014.97
2022-10-19T13:07:47.127Z,102002.78
2022-10-19T13:10:17.450Z,102002.53
2022-10-19T13:12:44.433Z,101995.03
2022-10-19T13:15:29.943Z,101997.25
2022-10-19T13:17:55.493Z,101984.50
2022-10-19T13:23:02.732Z,101980.88
2022-10-19T13:25:29.223Z,101967.59
2022-10-19T13:27:55.650Z,101962.59
2022-10-19T13:36:08.035Z,101964.56
2022-10-19T13:38:53.479Z,101964.81
2022-10-19T13:41:20.989Z,101965.09
2022-10-19T13:44:02.532Z,101966.75
2022-10-19T13:46:30.812Z,101970.66
2022-10-19T13:49:02.445Z,101966.22
2022-10-19T13:51:31.411Z,101960.97
2022-10-19T13:54:01.027Z,101949.88
2022-10-19T13:56:29.329Z,101950.13
2022-10-19T13:59:01.571Z,101952.66
2022-10-19T14:01:47.009Z,101951.25
2022-10-19T14:04:17.733Z,101942.94
2022-10-19T14:06:46.861Z,101948.47
2022-10-19T14:09:16.664Z,101944.59
2022-10-19T14:11:42.715Z,101939.63
2022-10-19T14:16:44.718Z,101934.91
2022-10-19T14:19:12.021Z,101929.63
2022-10-19T14:21:37.566Z,101933.50
2022-10-19T14:24:09.323Z,101942.09
2022-10-19T14:26:34.875Z,101927.97
2022-10-19T14:29:00.442Z,101931.84
2022-10-19T14:31:40.986Z,101929.06
2022-10-19T14:34:06.840Z,101922.41
2022-10-19T14:36:35.519Z,101922.41
2022-10-19T14:39:01.066Z,101916.88
2022-10-19T14:44:02.218Z,101913.28
2022-10-19T14:46:28.490Z,101912.44
2022-10-19T14:48:57.819Z,101909.69
2022-10-19T14:51:43.250Z,101914.97
2022-10-19T14:54:14.543Z,101908.56
2022-10-19T14:56:42.603Z,101907.72
2022-10-19T14:59:18.743Z,101894.72
2022-10-19T15:01:48.111Z,101894.97
2022-10-19T15:04:17.199Z,101885.00
2022-10-19T15:06:42.752Z,101889.44
2022-10-19T15:09:15.441Z,101889.97
2022-10-19T15:11:50.223Z,101884.44
2022-10-19T15:14:17.014Z,101878.34
2022-10-19T15:16:43.900Z,101885.00
2022-10-19T15:19:14.301Z,101870.03
2022-10-19T15:21:39.851Z,101870.03
2022-10-19T15:24:06.311Z,101868.94
2022-10-19T15:26:31.868Z,101873.09
2022-10-19T15:29:17.311Z,101866.44
2022-10-19T15:31:42.862Z,101865.88
2022-10-19T15:34:15.611Z,101860.31
2022-10-19T15:36:45.993Z,101851.47
2022-10-19T15:39:25.192Z,101845.09
2022-10-19T15:42:18.172Z,101851.19
2022-10-19T15:44:43.736Z,101845.94
2022-10-19T15:47:18.194Z,101847.88
2022-10-19T15:49:46.462Z,101839.56
2022-10-19T15:52:13.355Z,101841.75
2022-10-19T15:54:38.894Z,101835.66
2022-10-19T15:57:15.885Z,101835.97
2022-10-19T15:59:41.431Z,101832.63
2022-10-19T16:02:12.169Z,101827.94
2022-10-19T16:04:37.710Z,101831.53
2022-10-19T16:07:03.262Z,101822.41
2022-10-19T16:09:28.875Z,101821.28
2022-10-19T16:11:56.518Z,101824.88
2022-10-19T16:14:22.581Z,101825.72
2022-10-19T16:16:48.218Z,101816.56
2022-10-19T16:19:13.766Z,101814.63
2022-10-19T16:21:39.337Z,101810.19
2022-10-19T16:24:04.950Z,101814.09
2022-10-19T16:26:31.531Z,101810.44
2022-10-19T16:28:57.089Z,101807.13
2022-10-19T16:31:22.777Z,101805.19
2022-10-19T16:33:48.319Z,101799.09
2022-10-19T16:36:13.883Z,101797.16
2022-10-19T16:38:39.491Z,101793.56
2022-10-19T16:41:06.305Z,101791.03
2022-10-19T16:43:31.914Z,101796.59
2022-10-19T16:45:57.515Z,101798.28
2022-10-19T16:48:24.018Z,101796.59
2022-10-19T16:53:39.381Z,101796.88
2022-10-19T16:56:05.790Z,101788.56
2022-10-19T16:58:31.327Z,101787.72
2022-10-19T17:01:00.536Z,101782.19
2022-10-19T17:03:27.364Z,101788.56
2022-10-19T17:05:52.918Z,101792.69
2022-10-19T17:08:18.457Z,101789.94
2022-10-19T17:10:44.004Z,101784.38
2022-10-19T17:13:09.543Z,101788.00
2022-10-19T17:15:43.771Z,101788.00
2022-10-19T17:18:09.378Z,101788.00
2022-10-19T17:20:34.981Z,101780.53
2022-10-19T17:23:00.522Z,101776.06
2022-10-19T17:25:26.061Z,101780.25
2022-10-19T17:27:51.627Z,101775.81
2022-10-19T17:30:17.316Z,101775.25
2022-10-19T17:32:42.866Z,101766.69
2022-10-19T17:35:08.422Z,101761.41
2022-10-19T17:37:34.200Z,101763.34
2022-10-19T17:39:59.987Z,101768.06
2022-10-19T17:42:25.535Z,101768.06
2022-10-19T17:44:52.650Z,101765.00
2022-10-19T17:47:18.199Z,101766.94
2022-10-19T17:49:43.747Z,101771.94
2022-10-19T17:52:09.298Z,101769.72
2022-10-19T17:54:43.534Z,101765.00
2022-10-19T17:57:20.006Z,101763.88
2022-10-19T17:59:52.581Z,101768.34
2022-10-19T18:02:18.723Z,101776.66
2022-10-19T18:04:44.258Z,101778.59
2022-10-19T18:07:09.805Z,101774.72
2022-10-19T18:09:35.338Z,101777.47
2022-10-19T18:12:04.905Z,101773.88
2022-10-19T18:14:32.760Z,101771.38
2022-10-19T18:16:58.318Z,101773.88
2022-10-19T18:19:23.875Z,101768.34
2022-10-19T18:21:49.433Z,101775.81
2022-10-19T18:24:18.733Z,101777.72
2022-10-19T18:26:44.370Z,101774.72
2022-10-19T18:29:11.290Z,101759.75
2022-10-19T18:31:37.078Z,101768.06
2022-10-19T18:34:03.229Z,101768.34
2022-10-19T18:36:28.898Z,101773.06
2022-10-19T18:38:55.246Z,101768.34
2022-10-19T18:41:20.863Z,101768.34
2022-10-19T18:43:49.883Z,101760.84
2022-10-19T18:46:17.053Z,101758.09
2022-10-19T18:48:42.593Z,101760.84
2022-10-19T18:51:08.328Z,101758.59
2022-10-19T18:53:34.020Z,101752.78
2022-10-19T18:56:00.166Z,101750.03
2022-10-19T18:58:25.791Z,101746.19
2022-10-19T19:01:11.370Z,101750.03
2022-10-19T19:03:37.713Z,101743.66
2022-10-19T19:06:04.192Z,101740.06
2022-10-19T19:08:29.806Z,101732.56
2022-10-19T19:10:55.678Z,101718.72
2022-10-19T19:13:21.292Z,101717.03
2022-10-19T19:16:01.815Z,101719.56
2022-10-19T19:18:28.350Z,101724.25
2022-10-19T19:20:53.900Z,101727.88
2022-10-19T19:23:19.437Z,101727.88
2022-10-19T19:25:44.979Z,101713.19
2022-10-19T19:28:10.534Z,101703.78
2022-10-19T19:30:40.366Z,101702.09
2022-10-19T19:33:05.923Z,101701.53
2022-10-19T19:35:32.330Z,101712.34
2022-10-19T19:37:57.878Z,101703.19
2022-10-19T19:40:23.437Z,101710.66
2022-10-19T19:42:48.986Z,101717.03
2022-10-19T19:45:14.533Z,101719.81
2022-10-19T19:47:40.091Z,101705.94
2022-10-19T19:50:05.888Z,101705.94
2022-10-19T19:52:31.443Z,101687.41
2022-10-19T19:54:57.192Z,101684.91
2022-10-19T19:57:22.747Z,101686.56
2022-10-19T19:59:48.291Z,101697.66
2022-10-19T20:02:15.614Z,101683.25
2022-10-19T20:04:41.154Z,101672.16
2022-10-19T20:07:06.701Z,101684.66
2022-10-19T20:09:32.339Z,101679.38
2022-10-19T20:11:57.915Z,101676.59
2022-10-19T20:14:23.466Z,101667.16
2022-10-19T20:16:49.014Z,101661.91
2022-10-19T20:19:14.546Z,101668.28
2022-10-19T20:21:40.378Z,101667.16
2022-10-19T20:24:05.996Z,101671.88
2022-10-19T20:26:31.640Z,101671.06
2022-10-19T20:28:57.182Z,101665.50
2022-10-19T20:31:24.329Z,101657.19
2022-10-19T20:33:49.918Z,101666.34
2022-10-19T20:36:16.638Z,101659.13
2022-10-19T20:38:46.067Z,101648.88
2022-10-19T20:41:11.614Z,101642.78
2022-10-19T20:43:37.166Z,101642.53
2022-10-19T20:46:03.383Z,101633.38
2022-10-19T20:48:28.959Z,101626.97
2022-10-19T20:50:54.506Z,101627.84
2022-10-19T20:53:20.042Z,101634.22
2022-10-19T20:55:45.597Z,101640.00
2022-10-19T20:58:11.130Z,101638.94
2022-10-19T21:00:36.675Z,101630.59
2022-10-19T21:03:02.237Z,101628.09
2022-10-19T21:05:27.781Z,101628.09
2022-10-19T21:07:53.343Z,101622.56
2022-10-19T21:10:18.891Z,101623.38
2022-10-19T21:12:44.442Z,101607.88
2022-10-19T21:15:10.062Z,101602.03
2022-10-19T21:17:35.611Z,101594.03
2022-10-19T21:20:01.159Z,101594.03
2022-10-19T21:22:26.713Z,101603.16
2022-10-19T21:24:52.271Z,101582.94
2022-10-19T21:27:17.826Z,101592.38
2022-10-19T21:29:43.374Z,101595.97
2022-10-19T21:32:08.950Z,101596.81
2022-10-19T21:34:34.491Z,101601.50
2022-10-19T21:37:00.039Z,101601.50
2022-10-19T21:39:25.578Z,101599.56
2022-10-19T21:41:51.300Z,101592.38
2022-10-19T21:44:17.094Z,101588.50
2022-10-19T21:46:43.127Z,101581.28
2022-10-19T21:49:09.602Z,101574.94
2022-10-19T21:51:43.456Z,101572.16
2022-10-19T21:56:41.318Z,101582.94
2022-10-19T21:59:06.951Z,101581.28
2022-10-19T22:01:37.255Z,101581.28
2022-10-19T22:04:06.423Z,101588.78
2022-10-19T22:06:32.810Z,101581.28
2022-10-19T22:08:58.708Z,101579.63
2022-10-19T22:11:24.440Z,101581.28
2022-10-19T22:13:54.160Z,101564.97
2022-10-19T22:16:19.879Z,101563.84
2022-10-19T22:18:45.455Z,101560.25
2022-10-19T22:21:12.531Z,101561.06
2022-10-19T22:23:38.119Z,101552.75
2022-10-19T22:26:20.867Z,101551.13
2022-10-19T22:28:46.419Z,101543.63
2022-10-19T22:31:12.136Z,101540.28
2022-10-19T22:33:37.679Z,101546.66
2022-10-19T22:36:04.407Z,101533.63
2022-10-19T22:38:29.942Z,101524.50
2022-10-19T22:40:55.483Z,101527.00
2022-10-19T22:43:21.041Z,101516.19
2022-10-19T22:45:47.000Z,101508.69
2022-10-19T22:48:12.680Z,101507.06
2022-10-19T22:50:38.218Z,101501.50
2022-10-19T22:53:03.771Z,101495.97
2022-10-19T22:55:29.318Z,101492.38
2022-10-19T22:57:54.868Z,101487.66
2022-10-19T23:00:20.408Z,101481.28
2022-10-19T23:02:45.963Z,101475.75
2022-10-19T23:05:11.506Z,101469.38
2022-10-19T23:07:37.778Z,101461.06
2022-10-19T23:10:04.003Z,101463.84
2022-10-19T23:12:29.543Z,101463.84
2022-10-19T23:14:55.078Z,101468.56
2022-10-19T23:17:20.632Z,101451.13
2022-10-19T23:19:46.175Z,101453.88
2022-10-19T23:22:11.720Z,101455.53
2022-10-19T23:24:37.260Z,101440.88
2022-10-19T23:27:02.875Z,101441.69
2022-10-19T23:29:28.414Z,101432.56
2022-10-19T23:31:53.966Z,101424.25
2022-10-19T23:34:19.504Z,101424.25
2022-10-19T23:36:45.047Z,101431.72
2022-10-19T23:39:10.594Z,101435.31
2022-10-19T23:41:36.143Z,101431.72
2022-10-19T23:44:02.057Z,101420.66
2022-10-19T23:46:27.605Z,101433.66
2022-10-19T23:48:53.138Z,101427.00
2022-10-19T23:51:19.088Z,101421.47
2022-10-19T23:53:45.146Z,101425.06
2022-10-19T23:56:15.121Z,101428.13
2022-10-19T23:58:40.676Z,101432.56
